Time;durP1;ratioP1;P1;durP2;ratioP2;P2;SDS_P1;SDS_P2;PMS_P1;PMS_P2;Temp;Humidity;BMP_temperature;BMP_pressure;BME280_temperature;BME280_humidity;BME280_pressure;Samples;Min_cycle;Max_cycle;Signal;HPM_P1;HPM_P2
2024/04/10 00:02:11;;;;;;;0.10;0.10;;;;;;;13.30;55.86;101292.38;5464765;26;19994;-85
2024/04/10 00:04:37;;;;;;;0.10;0.10;;;;;;;13.35;55.77;101299.03;5494514;26;20034;-85
2024/04/10 00:07:03;;;;;;;0.20;0.20;;;;;;;13.39;55.97;101307.53;5464981;26;19993;-85
2024/04/10 00:09:28;;;;;;;0.10;0.10;;;;;;;13.31;55.99;101305.28;5495131;26;20406;-85
2024/04/10 00:11:54;;;;;;;0.10;0.10;;;;;;;13.29;56.21;101301.09;5464511;26;19997;-84
2024/04/10 00:14:19;;;;;;;0.10;0.10;;;;;;;13.38;56.12;101316.25;5525758;26;20004;-85
2024/04/10 00:16:45;;;;;;;0.10;0.10;;;;;;;13.37;56.11;101310.19;5494870;26;20360;-85
2024/04/10 00:19:11;;;;;;;0.10;0.10;;;;;;;13.35;56.70;101305.97;5463780;26;20365;-85
2024/04/10 00:21:36;;;;;;;0.10;0.10;;;;;;;13.36;56.54;101308.50;5464353;26;20019;-86
2024/04/10 00:24:02;;;;;;;0.10;0.10;;;;;;;13.28;56.58;101284.66;5494775;26;19998;-85
2024/04/10 00:26:27;;;;;;;0.10;0.10;;;;;;;13.51;55.57;101312.09;5525663;26;20426;-85
2024/04/10 00:28:53;;;;;;;0.10;0.10;;;;;;;13.41;56.06;101306.53;5525349;26;19993;-84
2024/04/10 00:31:19;;;;;;;0.10;0.10;;;;;;;13.37;56.41;101306.72;5494865;26;19993;-85
2024/04/10 00:33:44;;;;;;;0.10;0.10;;;;;;;13.35;56.36;101304.22;5464426;26;20029;-85
2024/04/10 00:36:10;;;;;;;0.10;0.10;;;;;;;13.30;57.02;101315.78;5525433;26;20331;-85
2024/04/10 00:38:35;;;;;;;0.10;0.10;;;;;;;13.22;56.50;101303.16;5494370;26;20016;-85
2024/04/10 00:41:03;;;;;;;0.20;0.20;;;;;;;13.19;56.91;101311.09;5494495;26;20002;-84
2024/04/10 00:43:28;;;;;;;0.20;0.20;;;;;;;13.16;57.81;101314.63;5494887;26;19994;-85
2024/04/10 00:46:09;;;;;;;0.10;0.10;;;;;;;13.28;57.14;101321.06;5494641;26;19998;-86
2024/04/10 00:48:38;;;;;;;0.10;0.10;;;;;;;13.26;57.21;101311.63;5526666;26;20461;-85
2024/04/10 00:51:06;;;;;;;0.20;0.20;;;;;;;13.07;57.40;101301.25;5464131;26;19997;-84
2024/04/10 00:53:32;;;;;;;0.10;0.10;;;;;;;13.02;58.02;101304.09;5495046;26;19997;-85
2024/04/10 00:55:57;;;;;;;0.10;0.10;;;;;;;12.99;58.04;101303.41;5494581;26;20005;-85
2024/04/10 00:58:23;;;;;;;0.10;0.10;;;;;;;12.89;58.28;101301.25;5524946;26;20037;-85
2024/04/10 01:00:48;;;;;;;0.10;0.10;;;;;;;12.99;58.20;101306.00;5463618;26;20542;-85
2024/04/10 01:03:14;;;;;;;0.20;0.20;;;;;;;12.88;58.16;101296.97;5493722;26;19997;-85
2024/04/10 01:05:40;;;;;;;0.10;0.10;;;;;;;12.93;58.26;101305.38;5494253;26;19993;-85
2024/04/10 01:08:06;;;;;;;0.10;0.10;;;;;;;12.90;58.66;101308.13;5494313;26;20009;-85
2024/04/10 01:10:31;;;;;;;0.20;0.20;;;;;;;12.73;58.84;101309.81;5494269;26;19994;-85
2024/04/10 01:12:57;;;;;;;0.10;0.10;;;;;;;12.64;59.19;101311.94;5524962;26;19998;-85
2024/04/10 01:15:22;;;;;;;0.10;0.10;;;;;;;12.62;59.20;101308.56;5493933;26;20005;-85
2024/04/10 01:17:48;;;;;;;0.10;0.10;;;;;;;12.60;59.28;101304.38;5524149;26;19997;-84
2024/04/10 01:20:13;;;;;;;0.10;0.10;;;;;;;12.61;59.70;101324.22;5493902;26;20003;-85
2024/04/10 01:22:39;;;;;;;0.10;0.10;;;;;;;12.58;59.44;101319.16;5493974;26;20004;-84
2024/04/10 01:25:05;;;;;;;0.20;0.20;;;;;;;12.54;59.62;101323.66;5524737;26;19993;-85
2024/04/10 01:27:32;;;;;;;0.10;0.10;;;;;;;12.53;59.52;101326.31;5494000;26;19997;-85
2024/04/10 01:29:57;;;;;;;0.10;0.10;;;;;;;12.50;59.55;101331.66;5493535;26;20079;-85
2024/04/10 01:32:23;;;;;;;0.10;0.10;;;;;;;12.52;58.89;101330.69;5463547;26;20052;-85
2024/04/10 01:34:48;;;;;;;0.10;0.10;;;;;;;12.52;58.50;101319.47;5463252;26;19993;-85
2024/04/10 01:37:14;;;;;;;0.20;0.20;;;;;;;12.51;58.65;101323.81;5463382;26;19997;-84
2024/04/10 01:39:40;;;;;;;0.10;0.10;;;;;;;12.48;59.40;101329.13;5493425;26;20001;-85
2024/04/10 01:42:05;;;;;;;0.10;0.10;;;;;;;12.35;59.45;101307.25;5463414;26;19998;-85
2024/04/10 01:44:31;;;;;;;0.10;0.10;;;;;;;12.43;58.98;101312.94;5493236;26;20004;-84
2024/04/10 01:46:57;;;;;;;0.10;0.10;;;;;;;12.42;59.39;101310.41;5494039;26;19997;-84
2024/04/10 01:49:22;;;;;;;0.10;0.10;;;;;;;12.43;59.12;101312.09;5463530;26;19994;-85
2024/04/10 01:51:48;;;;;;;0.10;0.10;;;;;;;12.49;58.90;101314.41;5493858;26;20000;-85
2024/04/10 01:54:13;;;;;;;0.10;0.10;;;;;;;12.40;59.28;101318.25;5493821;26;20043;-84
2024/04/10 01:56:39;;;;;;;0.10;0.10;;;;;;;12.53;58.81;101318.53;5524176;26;20008;-85
2024/04/10 01:59:04;;;;;;;0.10;0.10;;;;;;;12.46;58.67;101309.34;5462903;26;20029;-85
2024/04/10 02:01:30;;;;;;;0.10;0.10;;;;;;;12.49;58.86;101317.84;5493361;26;20002;-85
2024/04/10 02:03:56;;;;;;;0.20;0.20;;;;;;;12.49;58.84;101309.22;5463139;26;20011;-84
2024/04/10 02:06:23;;;;;;;0.10;0.10;;;;;;;12.46;59.25;101304.16;5463357;26;19993;-85
2024/04/10 02:08:48;;;;;;;0.10;0.10;;;;;;;12.57;59.00;101307.09;5524310;26;20071;-85
2024/04/10 02:11:25;;;;;;;0.10;0.10;;;;;;;12.60;59.05;101307.81;5463265;26;20062;-85
2024/04/10 02:13:50;;;;;;;0.10;0.10;;;;;;;12.57;58.89;101313.13;5523984;26;19993;-84
2024/04/10 02:16:16;;;;;;;0.20;0.20;;;;;;;12.44;59.27;101304.22;5524177;26;20338;-85
2024/04/10 02:18:41;;;;;;;0.10;0.10;;;;;;;12.38;59.60;101307.09;5461748;26;19997;-85
2024/04/10 02:21:07;;;;;;;0.10;0.10;;;;;;;12.33;59.90;101307.31;5462841;26;20002;-84
2024/04/10 02:23:33;;;;;;;0.10;0.10;;;;;;;12.32;59.82;101303.03;5493271;26;19993;-84
2024/04/10 02:26:10;;;;;;;0.20;0.20;;;;;;;12.35;59.60;101294.25;5462961;26;20005;-85
2024/04/10 02:28:36;;;;;;;0.10;0.10;;;;;;;12.36;60.15;101303.72;5492823;26;20012;-85
2024/04/10 02:31:02;;;;;;;0.10;0.10;;;;;;;12.17;59.64;101308.91;5493130;26;20307;-85
2024/04/10 02:33:33;;;;;;;0.10;0.10;;;;;;;12.17;59.79;101303.72;5493384;26;20009;-85
2024/04/10 02:35:58;;;;;;;0.10;0.10;;;;;;;11.81;60.56;101279.44;5523990;26;20000;-84
2024/04/10 02:38:24;;;;;;;0.10;0.10;;;;;;;12.00;60.62;101311.44;5523399;26;20001;-85
2024/04/10 02:40:49;;;;;;;0.10;0.10;;;;;;;11.97;59.97;101312.38;5523174;26;20002;-84
2024/04/10 02:43:15;;;;;;;0.10;0.10;;;;;;;11.99;60.51;101325.28;5492178;26;20065;-85
2024/04/10 02:45:40;;;;;;;0.10;0.10;;;;;;;12.03;60.45;101326.84;5492787;26;20005;-85
2024/04/10 02:48:06;;;;;;;0.20;0.20;;;;;;;11.92;61.46;101329.06;5493017;26;20008;-85
2024/04/10 02:50:32;;;;;;;0.10;0.10;;;;;;;11.94;61.19;101332.44;5492799;26;20323;-85
2024/04/10 02:52:58;;;;;;;0.10;0.10;;;;;;;11.93;61.13;101333.34;5523633;26;19994;-85
2024/04/10 02:55:24;;;;;;;0.10;0.10;;;;;;;11.90;61.23;101325.69;5492842;26;20004;-85
2024/04/10 02:57:49;;;;;;;0.10;0.10;;;;;;;11.90;60.79;101323.09;5492321;26;20451;-85
2024/04/10 03:00:15;;;;;;;0.20;0.20;;;;;;;11.83;61.04;101322.53;5492543;26;20008;-86
2024/04/10 03:02:42;;;;;;;0.20;0.20;;;;;;;11.87;60.96;101320.63;5492974;26;19997;-82
2024/04/10 03:05:07;;;;;;;0.10;0.10;;;;;;;12.01;61.09;101336.44;5462155;26;20004;-82
2024/04/10 03:07:33;;;;;;;0.20;0.20;;;;;;;11.85;61.43;101328.47;5492754;26;19993;-82
2024/04/10 03:09:58;;;;;;;0.10;0.10;;;;;;;11.86;61.05;101324.97;5492580;26;20004;-82
2024/04/10 03:12:26;;;;;;;0.10;0.10;;;;;;;11.88;60.80;101324.91;5492165;26;20000;-82
2024/04/10 03:14:51;;;;;;;0.10;0.10;;;;;;;11.75;60.89;101333.19;5492886;26;20422;-84
2024/04/10 03:17:17;;;;;;;0.10;0.10;;;;;;;11.66;61.00;101337.91;5492135;26;19997;-85
2024/04/10 03:19:43;;;;;;;0.20;0.20;;;;;;;11.50;61.71;101329.91;5522662;26;20012;-85
2024/04/10 03:22:09;;;;;;;0.10;0.10;;;;;;;11.37;62.50;101323.56;5461899;26;19998;-85
2024/04/10 03:24:34;;;;;;;0.10;0.10;;;;;;;11.53;62.05;101337.59;5462003;26;20038;-84
2024/04/10 03:27:00;;;;;;;0.10;0.10;;;;;;;11.60;61.96;101340.75;5461637;26;19993;-84
2024/04/10 03:29:26;;;;;;;0.10;0.10;;;;;;;11.59;61.78;101334.72;5492460;26;20391;-84
2024/04/10 03:31:53;;;;;;;0.10;0.10;;;;;;;11.55;62.29;101340.09;5464414;26;20005;-85
2024/04/10 03:34:19;;;;;;;0.10;0.10;;;;;;;11.47;62.83;101340.41;5526229;26;20009;-85
2024/04/10 03:36:44;;;;;;;0.20;0.20;;;;;;;11.44;62.59;101330.19;5495489;26;20069;-85
2024/04/10 03:39:11;;;;;;;0.10;0.10;;;;;;;11.45;62.58;101339.66;5522136;26;20016;-85
2024/04/10 03:41:37;;;;;;;0.10;0.10;;;;;;;11.51;62.33;101339.41;5525154;26;20091;-87
2024/04/10 03:44:05;;;;;;;0.10;0.10;;;;;;;11.45;62.85;101342.25;5494953;26;20005;-94
2024/04/10 03:46:32;;;;;;;0.10;0.10;;;;;;;11.39;62.84;101345.06;5497330;26;19993;-91
2024/04/10 03:48:58;;;;;;;0.10;0.10;;;;;;;11.46;62.09;101336.16;5496993;26;20004;-93
2024/04/10 03:51:23;;;;;;;0.10;0.10;;;;;;;11.36;62.05;101340.03;5496753;26;20033;-91
2024/04/10 03:53:49;;;;;;;0.10;0.10;;;;;;;11.37;62.41;101336.53;5496674;26;20042;-91
2024/04/10 03:56:14;;;;;;;0.10;0.10;;;;;;;11.40;62.09;101341.56;5466032;26;20061;-92
2024/04/10 03:58:40;;;;;;;0.20;0.20;;;;;;;11.35;62.08;101338.34;5496958;26;20012;-92
2024/04/10 04:01:05;;;;;;;0.10;0.10;;;;;;;11.24;62.37;101330.16;5529309;25;20002;-92
2024/04/10 04:03:33;;;;;;;0.20;0.20;;;;;;;11.33;62.35;101360.88;5527844;26;20296;-91
2024/04/10 04:06:00;;;;;;;0.10;0.10;;;;;;;11.24;62.35;101361.25;5496984;26;20037;-92
2024/04/10 04:08:26;;;;;;;0.10;0.10;;;;;;;11.29;62.63;101369.66;5466593;26;19994;-92
2024/04/10 04:10:54;;;;;;;0.10;0.10;;;;;;;11.15;62.72;101363.28;5463811;26;20029;-91
2024/04/10 04:13:19;;;;;;;0.10;0.10;;;;;;;11.14;63.05;101369.38;5483461;26;19989;-93
2024/04/10 04:15:45;;;;;;;0.20;0.20;;;;;;;11.17;63.21;101373.59;5494950;26;20005;-90
2024/04/10 04:18:11;;;;;;;0.10;0.10;;;;;;;11.25;62.84;101371.53;5463079;26;20009;-91
2024/04/10 04:20:36;;;;;;;0.20;0.20;;;;;;;11.23;62.64;101365.59;5486030;26;20001;-85
2024/04/10 04:23:02;;;;;;;0.10;0.10;;;;;;;11.21;62.40;101364.81;5494878;26;20020;-88
2024/04/10 04:25:30;;;;;;;0.10;0.10;;;;;;;11.25;62.36;101366.34;5490959;26;19993;-86
2024/04/10 04:27:56;;;;;;;0.20;0.20;;;;;;;11.31;62.18;101366.13;5484106;26;20030;-90
2024/04/10 04:30:22;;;;;;;0.10;0.10;;;;;;;11.27;63.08;101368.88;5492166;26;19998;-91
2024/04/10 04:32:48;;;;;;;0.10;0.10;;;;;;;11.20;63.37;101366.53;5494506;26;20008;-89
2024/04/10 04:35:14;;;;;;;0.10;0.10;;;;;;;11.07;63.05;101344.63;5495009;26;20444;-88
2024/04/10 04:37:40;;;;;;;0.20;0.20;;;;;;;11.28;63.02;101374.00;5526864;25;20001;-80
2024/04/10 04:40:06;;;;;;;0.10;0.10;;;;;;;11.27;63.14;101371.47;5525608;26;20011;-92
2024/04/10 04:42:32;;;;;;;0.10;0.10;;;;;;;11.32;63.01;101370.41;5493374;26;20427;-90
2024/04/10 04:44:58;;;;;;;0.10;0.10;;;;;;;11.42;62.91;101381.22;5526478;25;19997;-89
2024/04/10 04:47:23;;;;;;;0.20;0.20;;;;;;;11.27;63.25;101361.13;5483665;26;19998;-85
2024/04/10 04:49:49;;;;;;;0.10;0.10;;;;;;;11.35;62.73;101366.84;5514341;26;20335;-91
2024/04/10 04:52:14;;;;;;;0.17;0.17;;;;;;;11.40;63.00;101367.47;5458328;26;20013;-83
2024/04/10 04:54:40;;;;;;;0.10;0.10;;;;;;;11.43;63.25;101377.72;5503433;26;20012;-84
2024/04/10 04:57:09;;;;;;;0.20;0.20;;;;;;;11.31;62.88;101344.56;5524181;26;20057;-92
2024/04/10 04:59:34;;;;;;;0.10;0.10;;;;;;;11.52;62.85;101369.59;5521117;26;20090;-87
2024/04/10 05:02:00;;;;;;;0.10;0.10;;;;;;;11.62;62.84;101383.00;5493448;26;20021;-86
2024/04/10 05:07:10;;;;;;;0.10;0.10;;;;;;;11.78;62.62;101381.44;5486657;26;20042;-84
2024/04/10 05:09:35;;;;;;;0.17;0.17;;;;;;;11.88;62.73;101384.53;5510879;26;19997;-88
2024/04/10 05:12:01;;;;;;;0.10;0.10;;;;;;;11.92;62.66;101391.28;5490938;26;20034;-90
2024/04/10 05:14:27;;;;;;;0.10;0.10;;;;;;;11.96;62.53;101392.84;5477909;26;20002;-87
2024/04/10 05:16:53;;;;;;;0.10;0.10;;;;;;;12.10;62.32;101400.88;5523772;26;20016;-87
2024/04/10 05:19:18;;;;;;;0.10;0.10;;;;;;;12.23;62.48;101407.22;5527105;26;20009;-91
2024/04/10 05:21:44;;;;;;;0.20;0.20;;;;;;;12.21;62.35;101401.25;5520936;26;20009;-88
2024/04/10 05:24:09;;;;;;;0.10;0.10;;;;;;;12.38;62.41;101418.66;5491468;26;19993;-86
2024/04/10 05:26:36;;;;;;;0.17;0.17;;;;;;;12.50;62.27;101415.56;5522208;26;20039;-88
2024/04/10 05:29:02;;;;;;;0.10;0.10;;;;;;;12.55;61.47;101408.38;5518241;26;20013;-89
2024/04/10 05:31:27;;;;;;;0.20;0.20;;;;;;;12.66;61.57;101417.44;5491325;26;20044;-89
2024/04/10 05:33:53;;;;;;;0.10;0.10;;;;;;;12.78;62.03;101412.56;5522809;25;20002;-86
2024/04/10 05:36:18;;;;;;;0.20;0.20;;;;;;;13.06;61.90;101425.09;5461403;26;20008;-92
2024/04/10 05:38:45;;;;;;;0.20;0.20;;;;;;;13.24;58.28;101423.44;5458768;26;20434;-86
2024/04/10 05:41:10;;;;;;;0.17;0.17;;;;;;;13.26;57.91;101416.41;5482579;26;20019;-88
2024/04/10 05:43:37;;;;;;;0.20;0.20;;;;;;;13.44;57.72;101433.72;5494104;26;20330;-93
2024/04/10 05:46:03;;;;;;;0.20;0.20;;;;;;;13.54;57.04;101435.88;5521545;26;20041;-92
2024/04/10 05:48:30;;;;;;;0.20;0.20;;;;;;;13.61;56.31;101445.06;5495185;26;19993;-91
2024/04/10 05:50:57;;;;;;;0.20;0.20;;;;;;;13.62;56.57;101441.56;5525848;26;20038;-92
2024/04/10 05:53:24;;;;;;;0.20;0.20;;;;;;;13.81;56.81;101449.28;5492128;26;20092;-93
2024/04/10 05:55:50;;;;;;;0.10;0.10;;;;;;;13.76;56.01;101445.19;5523773;26;20013;-91
2024/04/10 05:58:16;;;;;;;0.20;0.20;;;;;;;13.90;56.32;101460.09;5504871;26;20039;-89
2024/04/10 06:00:41;;;;;;;0.10;0.10;;;;;;;13.97;55.60;101466.69;5524417;26;20008;-92
2024/04/10 06:03:08;;;;;;;0.10;0.10;;;;;;;14.01;54.95;101467.34;5525355;26;20005;-92
2024/04/10 06:05:34;;;;;;;0.20;0.20;;;;;;;14.02;55.28;101459.47;5494487;26;20508;-89
2024/04/10 06:07:59;;;;;;;0.10;0.10;;;;;;;14.06;55.47;101444.56;5523434;26;19998;-91
2024/04/10 06:10:25;;;;;;;0.10;0.10;;;;;;;14.23;55.33;101464.50;5523752;26;19999;-83
2024/04/10 06:12:51;;;;;;;0.20;0.20;;;;;;;14.32;55.01;101469.25;5522465;26;19993;-86
2024/04/10 06:15:16;;;;;;;0.20;0.20;;;;;;;14.27;54.96;101464.28;5492135;26;19997;-88
2024/04/10 06:17:42;;;;;;;0.20;0.20;;;;;;;14.39;54.97;101461.97;5491886;26;20018;-89
2024/04/10 06:20:11;;;;;;;0.20;0.20;;;;;;;14.35;54.63;101449.13;5492797;26;19994;-87
2024/04/10 06:22:39;;;;;;;0.20;0.20;;;;;;;14.48;54.60;101464.97;5523720;25;20073;-89
2024/04/10 06:25:05;;;;;;;0.10;0.10;;;;;;;14.72;54.81;101475.03;5523069;26;19998;-92
2024/04/10 06:27:30;;;;;;;0.10;0.10;;;;;;;14.82;53.81;101476.22;5492973;26;20068;-93
2024/04/10 06:29:56;;;;;;;0.20;0.20;;;;;;;14.87;53.87;101474.22;5486582;26;19998;-93
2024/04/10 06:32:22;;;;;;;0.10;0.10;;;;;;;14.98;53.44;101477.09;5494998;26;20012;-86
2024/04/10 06:34:48;;;;;;;0.20;0.20;;;;;;;15.30;53.97;101475.34;5521692;26;19994;-86
2024/04/10 06:37:15;;;;;;;0.20;0.20;;;;;;;15.45;53.63;101460.63;5524228;26;20004;-89
2024/04/10 06:39:40;;;;;;;0.13;0.13;;;;;;;15.59;52.45;101473.72;5450637;26;20420;-89
2024/04/10 06:42:06;;;;;;;0.20;0.20;;;;;;;15.53;50.61;101475.81;5462585;26;20004;-87
2024/04/10 06:44:31;;;;;;;0.10;0.10;;;;;;;15.46;50.61;101484.00;5491263;26;20061;-87
2024/04/10 06:46:57;;;;;;;0.20;0.20;;;;;;;15.52;51.60;101467.16;5491657;26;19989;-91
2024/04/10 06:49:23;;;;;;;0.10;0.10;;;;;;;15.82;51.63;101484.63;5492284;26;19994;-86
2024/04/10 06:51:48;;;;;;;0.10;0.10;;;;;;;15.76;50.75;101473.63;5495295;26;20507;-87
2024/04/10 06:54:14;;;;;;;0.10;0.10;;;;;;;15.81;50.13;101469.91;5485998;26;20035;-88
2024/04/10 06:56:40;;;;;;;0.20;0.20;;;;;;;16.10;50.38;101484.72;5487940;26;20095;-87
2024/04/10 06:59:06;;;;;;;0.10;0.10;;;;;;;16.27;50.78;101483.75;5522798;26;19997;-88
2024/04/10 07:01:33;;;;;;;0.10;0.10;;;;;;;16.49;49.73;101475.47;5525338;26;20004;-90
2024/04/10 07:03:58;;;;;;;0.10;0.10;;;;;;;16.52;48.74;101475.31;5503535;26;20086;-90
2024/04/10 07:06:24;;;;;;;0.10;0.10;;;;;;;16.63;48.30;101483.31;5506209;26;20001;-93
2024/04/10 07:08:50;;;;;;;0.10;0.10;;;;;;;16.72;48.20;101476.75;5524192;26;20009;-87
2024/04/10 07:11:17;;;;;;;0.20;0.20;;;;;;;16.74;47.88;101482.69;5523002;26;20366;-88
2024/04/10 07:13:46;;;;;;;0.20;0.20;;;;;;;16.80;47.59;101485.75;5463209;26;20135;-90
2024/04/10 07:16:12;;;;;;;0.20;0.20;;;;;;;16.83;47.40;101479.53;5525698;26;20006;-91
2024/04/10 07:18:38;;;;;;;0.20;0.20;;;;;;;16.84;46.57;101461.13;5494374;26;19994;-86
2024/04/10 07:21:04;;;;;;;0.10;0.10;;;;;;;17.02;46.72;101468.78;5526660;25;20415;-86
2024/04/10 07:23:30;;;;;;;0.10;0.10;;;;;;;17.07;46.39;101477.16;5526246;26;20039;-93
2024/04/10 07:26:07;;;;;;;0.10;0.10;;;;;;;16.95;46.74;101463.09;5499307;26;20001;-90
2024/04/10 07:28:33;;;;;;;0.20;0.20;;;;;;;17.07;46.87;101482.38;5464685;26;20331;-91
2024/04/10 07:30:58;;;;;;;0.10;0.10;;;;;;;17.25;46.95;101483.00;5460345;26;19994;-92
2024/04/10 07:33:24;;;;;;;0.20;0.20;;;;;;;17.31;46.78;101487.88;5515232;26;20065;-88
2024/04/10 07:35:49;;;;;;;0.20;0.20;;;;;;;17.36;46.18;101478.78;5521327;21;20011;-88
2024/04/10 07:38:16;;;;;;;0.10;0.10;;;;;;;17.40;46.33;101477.66;5369680;26;20441;-88
2024/04/10 07:40:52;;;;;;;0.20;0.20;;;;;;;17.60;45.81;101488.59;5381377;26;19996;-90
2024/04/10 07:43:17;;;;;;;0.20;0.20;;;;;;;17.72;45.86;101493.09;5391411;26;20066;-91
2024/04/10 07:45:43;;;;;;;0.20;0.20;;;;;;;17.79;45.89;101491.72;5382230;26;19999;-92
2024/04/10 07:48:08;;;;;;;0.10;0.10;;;;;;;17.92;45.23;101500.47;5387973;26;20391;-90
2024/04/10 07:50:34;;;;;;;0.20;0.20;;;;;;;17.77;45.97;101493.59;5377941;26;20434;-90
2024/04/10 07:52:59;;;;;;;0.10;0.10;;;;;;;18.05;46.06;101503.09;5322791;26;20111;-89
2024/04/10 07:55:25;;;;;;;0.20;0.20;;;;;;;18.10;45.38;101479.25;5389273;21;20000;-88
2024/04/10 07:57:51;;;;;;;0.20;0.20;;;;;;;18.13;44.52;101498.19;5378373;26;20116;-91
2024/04/10 08:00:17;;;;;;;0.10;0.10;;;;;;;18.14;45.17;101483.31;5419757;21;20054;-92
2024/04/10 08:02:43;;;;;;;0.20;0.20;;;;;;;18.32;45.28;101498.63;5390951;26;20032;-88
2024/04/10 08:05:10;;;;;;;0.17;0.17;;;;;;;18.32;45.02;101477.69;5380958;26;20438;-86
2024/04/10 08:07:36;;;;;;;0.20;0.20;;;;;;;18.51;44.97;101495.63;5379883;26;20050;-88
2024/04/10 08:10:03;;;;;;;0.10;0.10;;;;;;;18.54;44.20;101468.34;5379460;26;20465;-86
2024/04/10 08:12:29;;;;;;;0.10;0.10;;;;;;;18.76;44.26;101493.94;5344990;26;19997;-87
2024/04/10 08:14:56;;;;;;;0.20;0.20;;;;;;;18.87;44.04;101497.47;5317851;26;20008;-89
2024/04/10 08:17:22;;;;;;;0.20;0.20;;;;;;;18.78;43.51;101460.59;5400188;26;20057;-92
2024/04/10 08:19:47;;;;;;;0.20;0.20;;;;;;;19.14;43.33;101489.47;5379852;26;20016;-88
2024/04/10 08:22:13;;;;;;;0.10;0.10;;;;;;;19.29;42.99;101502.44;5366306;26;20000;-91
2024/04/10 08:24:39;;;;;;;0.10;0.10;;;;;;;19.32;42.01;101507.47;5356498;26;20022;-87
2024/04/10 08:27:06;;;;;;;0.20;0.20;;;;;;;19.44;42.75;101503.94;5368434;26;20032;-90
2024/04/10 08:29:32;;;;;;;0.20;0.20;;;;;;;19.56;43.02;101489.13;5380322;26;20004;-91
2024/04/10 08:31:58;;;;;;;0.10;0.10;;;;;;;19.62;42.70;101493.94;5380056;26;20011;-88
2024/04/10 08:34:24;;;;;;;0.20;0.20;;;;;;;19.73;43.30;101507.13;5383423;26;20003;-89
2024/04/10 08:36:50;;;;;;;0.20;0.20;;;;;;;19.68;42.23;101501.38;5379815;26;20446;-94
2024/04/10 08:39:17;;;;;;;0.20;0.20;;;;;;;19.86;42.51;101499.16;5354725;26;20007;-94
2024/04/10 08:41:43;;;;;;;0.20;0.20;;;;;;;19.90;42.17;101484.88;5440026;21;19999;-92
2024/04/10 08:44:09;;;;;;;0.13;0.13;;;;;;;20.17;42.44;101503.81;5354271;26;20004;-93
2024/04/10 08:46:34;;;;;;;0.20;0.20;;;;;;;20.29;41.28;101500.25;5364043;26;20004;-90
2024/04/10 08:49:00;;;;;;;0.20;0.20;;;;;;;20.55;42.13;101505.31;5391365;26;20429;-86
2024/04/10 08:51:26;;;;;;;0.20;0.20;;;;;;;20.77;41.48;101504.53;5356864;26;19995;-92
2024/04/10 08:53:54;;;;;;;0.20;0.20;;;;;;;20.95;40.74;101504.88;5351970;26;20000;-92
2024/04/10 08:56:19;;;;;;;0.20;0.20;;;;;;;21.05;40.49;101511.09;5380718;26;20019;-94
2024/04/10 08:58:46;;;;;;;0.20;0.20;;;;;;;21.05;39.81;101497.94;5330833;26;20000;-92
2024/04/10 09:01:27;;;;;;;0.20;0.20;;;;;;;21.17;39.87;101489.91;5417753;26;20011;-88
2024/04/10 09:03:53;;;;;;;0.20;0.20;;;;;;;21.44;40.69;101500.03;5351316;26;20317;-86
2024/04/10 09:06:19;;;;;;;0.20;0.20;;;;;;;21.68;39.29;101507.72;5388397;26;20423;-88
2024/04/10 09:08:58;;;;;;;0.20;0.20;;;;;;;21.88;38.59;101492.91;5381575;26;20139;-93
2024/04/10 09:11:23;;;;;;;0.20;0.20;;;;;;;21.92;39.35;101481.16;5336762;26;20000;-89
2024/04/10 09:14:10;;;;;;;0.20;0.20;;;;;;;22.16;38.06;101491.50;5403748;26;20010;-89
2024/04/10 09:16:37;;;;;;;0.13;0.13;;;;;;;22.19;38.47;101488.59;5416189;26;20006;-90
2024/04/10 09:19:16;;;;;;;0.20;0.20;;;;;;;22.24;38.23;101475.03;5362787;26;20003;-94
2024/04/10 09:21:56;;;;;;;0.20;0.20;;;;;;;22.42;37.98;101481.38;5380384;26;20012;-90
2024/04/10 09:24:25;;;;;;;0.20;0.20;;;;;;;22.52;37.71;101492.81;5381130;26;20008;-90
2024/04/10 09:26:51;;;;;;;0.20;0.20;;;;;;;22.73;37.60;101492.75;5335682;26;20004;-88
2024/04/10 09:29:24;;;;;;;0.20;0.20;;;;;;;22.71;38.25;101493.84;5380486;26;20099;-89
2024/04/10 09:31:50;;;;;;;0.10;0.10;;;;;;;22.93;37.41;101493.69;5385629;26;20045;-92
2024/04/10 09:34:19;;;;;;;0.20;0.20;;;;;;;23.10;37.97;101479.84;5356285;26;19999;-88
2024/04/10 09:36:45;;;;;;;0.10;0.10;;;;;;;23.31;37.16;101479.75;5341465;26;20043;-93
2024/04/10 09:39:11;;;;;;;0.20;0.20;;;;;;;23.26;36.20;101495.16;5328692;26;19996;-93
2024/04/10 09:41:36;;;;;;;0.20;0.20;;;;;;;23.40;37.74;101483.34;5349521;26;19996;-89
2024/04/10 09:44:05;;;;;;;0.20;0.20;;;;;;;23.53;37.48;101478.66;5342214;26;19993;-91
2024/04/10 09:46:35;;;;;;;0.20;0.20;;;;;;;23.72;35.86;101483.97;5309519;27;20002;-92
2024/04/10 09:49:11;;;;;;;0.20;0.20;;;;;;;23.78;36.31;101471.16;5281087;27;20002;-91
2024/04/10 09:51:40;;;;;;;0.20;0.20;;;;;;;23.92;35.69;101478.69;5265473;27;20006;-93
2024/04/10 09:54:07;;;;;;;0.20;0.20;;;;;;;23.95;35.04;101467.81;5247652;27;19998;-93
2024/04/10 09:56:36;;;;;;;0.20;0.20;;;;;;;24.24;34.66;101479.16;5247268;27;20002;-91
2024/04/10 09:59:03;;;;;;;0.20;0.20;;;;;;;24.15;33.77;101460.69;5279060;27;20003;-90
2024/04/10 10:01:29;;;;;;;0.20;0.20;;;;;;;24.13;33.80;101467.94;5247204;27;20010;-87
2024/04/10 10:03:59;;;;;;;0.20;0.20;;;;;;;24.25;33.91;101470.25;5248805;27;20006;-91
2024/04/10 10:06:31;;;;;;;0.20;0.20;;;;;;;24.36;33.18;101481.66;5275454;27;20021;-93
2024/04/10 10:08:56;;;;;;;;;;;;;;;24.49;33.47;101471.63;5249843;27;19998;-90
2024/04/10 10:11:24;;;;;;;0.20;0.20;;;;;;;24.46;32.86;101472.72;5275438;27;19927;-93
2024/04/10 10:14:19;;;;;;;0.20;0.20;;;;;;;24.55;32.84;101471.84;5275008;27;19998;-92
2024/04/10 10:16:45;;;;;;;0.20;0.20;;;;;;;24.65;33.22;101457.75;5271229;27;20009;-87
2024/04/10 10:19:19;;;;;;;0.20;0.20;;;;;;;24.83;32.26;101467.41;5274011;27;20010;-90
2024/04/10 10:21:44;;;;;;;0.15;0.15;;;;;;;25.02;32.63;101458.56;5258073;27;20018;-85
2024/04/10 10:24:13;;;;;;;0.13;0.13;;;;;;;25.22;33.55;101469.03;5245162;27;20010;-90
2024/04/10 10:26:38;;;;;;;0.20;0.20;;;;;;;25.06;32.02;101449.34;5247107;27;20009;-92
2024/04/10 10:29:05;;;;;;;0.20;0.20;;;;;;;25.33;31.15;101461.69;5218711;27;20010;-89
2024/04/10 10:31:30;;;;;;;0.20;0.20;;;;;;;25.33;30.43;101444.97;5246601;27;20448;-82
2024/04/10 10:34:03;;;;;;;0.20;0.20;;;;;;;25.52;31.01;101450.13;5246903;27;20021;-87
2024/04/10 10:36:32;;;;;;;0.20;0.20;;;;;;;25.64;30.93;101443.59;5274889;27;20068;-92
2024/04/10 10:39:05;;;;;;;0.20;0.20;;;;;;;25.63;30.82;101433.16;5275673;27;20006;-84
2024/04/10 10:41:31;;;;;;;;;;;;;;;25.84;29.30;101449.56;5275734;27;20002;-94
2024/04/10 10:44:00;;;;;;;0.20;0.20;;;;;;;25.79;30.91;101441.28;5341925;26;19965;-89
2024/04/10 10:46:26;;;;;;;0.20;0.20;;;;;;;26.06;28.65;101442.13;5315200;26;19997;-89
2024/04/10 10:48:52;;;;;;;0.20;0.20;;;;;;;26.34;29.23;101448.91;5314903;26;20001;-88
2024/04/10 10:51:18;;;;;;;0.20;0.20;;;;;;;26.57;28.81;101444.75;5286293;26;20012;-86
2024/04/10 10:53:44;;;;;;;0.20;0.20;;;;;;;26.71;28.05;101450.44;5286692;26;19997;-91
2024/04/10 10:56:09;;;;;;;0.20;0.20;;;;;;;26.60;27.25;101417.06;5285344;26;20020;-93
2024/04/10 10:58:35;;;;;;;0.20;0.20;;;;;;;26.66;28.39;101428.88;5314527;26;20023;-87
2024/04/10 11:01:06;;;;;;;0.20;0.20;;;;;;;26.87;27.49;101434.56;5308596;26;20016;-87
2024/04/10 11:03:32;;;;;;;0.20;0.20;;;;;;;26.76;27.84;101430.38;5312985;26;20001;-86
2024/04/10 11:06:10;;;;;;;0.20;0.20;;;;;;;26.75;27.11;101415.47;5342561;26;20005;-84
2024/04/10 11:08:35;;;;;;;0.20;0.20;;;;;;;27.03;28.02;101441.75;5312499;26;20033;-86
2024/04/10 11:11:01;;;;;;;0.20;0.20;;;;;;;27.16;26.86;101442.13;5311778;26;20012;-86
2024/04/10 11:13:27;;;;;;;0.20;0.20;;;;;;;27.17;26.18;101432.34;5310664;26;20009;-84
2024/04/10 11:15:56;;;;;;;0.20;0.20;;;;;;;27.07;26.62;101433.31;5312533;26;20009;-87
2024/04/10 11:18:22;;;;;;;0.20;0.20;;;;;;;27.16;25.99;101410.25;5287167;26;20000;-89
2024/04/10 11:20:48;;;;;;;0.20;0.20;;;;;;;27.34;25.06;101431.38;5313988;26;20312;-90
2024/04/10 11:23:14;;;;;;;0.20;0.20;;;;;;;27.41;24.69;101421.72;5286545;26;20092;-89
2024/04/10 11:25:40;;;;;;;0.20;0.20;;;;;;;27.41;25.23;101430.53;5284645;26;20426;-88
2024/04/10 11:28:07;;;;;;;0.20;0.20;;;;;;;27.28;25.36;101416.06;5342842;26;20663;-84